Orbital elements of IRIDIUM 33 DEB
| Launched | 13 September 1997 |
| Flight ended | – |
| Launch site | Tyuratam Missile and Space Center, Kazakhstan (Also known as Baikonur Cosmodrome) |
| Owner | United States |
| NORAD ID | 35628 |
| Date fetched |
Epoch osculation |
Inc. [°] |
Ecc. | RA asc node [hr] |
Arg Peri. [°] |
Mean anom [°] |
Mean motion [rev/day] |
Abs. mag |
| Date fetched |
Epoch osculation |
Inc. [°] |
Ecc. | RA asc node [hr] |
Arg Peri. [°] |
Mean anom [°] |
Mean motion [rev/day] |
Abs. mag |
| 2026 May 06 17:57 | 2026 May 04 05:28:51 | 86.3527 | 0.00109 | 20.3602 | 189.0292 | 171.0730 | 14.69936 | – |
| 2026 May 05 17:57 | 2026 May 04 05:28:51 | 86.3527 | 0.00109 | 20.3602 | 189.0292 | 171.0730 | 14.69936 | – |
| 2026 May 04 17:57 | 2026 Apr 28 18:46:27 | 86.3529 | 0.00101 | 20.5229 | 209.0268 | 171.0730 | 14.69936 | – |
| 2026 May 03 17:57 | 2026 Apr 28 18:46:27 | 86.3529 | 0.00101 | 20.5229 | 209.0268 | 171.0730 | 14.69936 | – |
| 2026 May 02 17:57 | 2026 Apr 28 18:46:27 | 86.3529 | 0.00101 | 20.5229 | 209.0268 | 171.0730 | 14.69936 | – |
| 2026 May 01 17:56 | 2026 Apr 28 18:46:27 | 86.3529 | 0.00101 | 20.5229 | 209.0268 | 171.0730 | 14.69936 | – |
| 2026 Apr 30 17:56 | 2026 Apr 28 18:46:27 | 86.3529 | 0.00101 | 20.5229 | 209.0268 | 171.0730 | 14.69936 | – |
| 2026 Apr 29 17:57 | 2026 Apr 20 19:36:16 | 86.3530 | 0.00092 | 20.7608 | 241.8460 | 171.0730 | 14.69936 | – |
| 2026 Apr 28 17:56 | 2026 Apr 20 19:36:16 | 86.3530 | 0.00092 | 20.7608 | 241.8460 | 171.0730 | 14.69936 | – |
| 2026 Apr 27 17:58 | 2026 Apr 20 19:36:16 | 86.3530 | 0.00092 | 20.7608 | 241.8460 | 171.0730 | 14.69936 | – |
| 2026 Apr 26 17:58 | 2026 Apr 20 19:36:16 | 86.3530 | 0.00092 | 20.7608 | 241.8460 | 171.0730 | 14.69936 | – |
| 2026 Apr 25 17:58 | 2026 Apr 20 19:36:16 | 86.3530 | 0.00092 | 20.7608 | 241.8460 | 171.0730 | 14.69936 | – |
| 2026 Apr 24 17:59 | 2026 Apr 20 19:36:16 | 86.3530 | 0.00092 | 20.7608 | 241.8460 | 171.0730 | 14.69936 | – |
| 2026 Apr 23 17:57 | 2026 Apr 18 07:08:49 | 86.3530 | 0.00091 | 20.8361 | 252.9363 | 171.0730 | 14.69936 | – |
| 2026 Apr 22 17:57 | 2026 Apr 18 07:08:49 | 86.3530 | 0.00091 | 20.8361 | 252.9363 | 171.0730 | 14.69936 | – |
| 2026 Apr 21 17:57 | 2026 Apr 18 07:08:49 | 86.3530 | 0.00091 | 20.8361 | 252.9363 | 171.0730 | 14.69936 | – |
| 2026 Apr 20 17:57 | 2026 Apr 18 07:08:49 | 86.3530 | 0.00091 | 20.8361 | 252.9363 | 171.0730 | 14.69936 | – |
| 2026 Apr 19 17:58 | 2026 Apr 18 07:08:49 | 86.3530 | 0.00091 | 20.8361 | 252.9363 | 171.0730 | 14.69936 | – |
| 2026 Apr 18 17:56 | 2026 Apr 12 20:25:33 | 86.3550 | 0.00092 | 20.9987 | 277.1656 | 171.0730 | 14.69936 | – |
| 2026 Apr 16 17:57 | 2026 Apr 12 20:25:33 | 86.3550 | 0.00092 | 20.9987 | 277.1656 | 171.0730 | 14.69936 | – |
| 2026 Apr 14 17:57 | 2026 Apr 12 20:25:33 | 86.3550 | 0.00092 | 20.9987 | 277.1656 | 171.0730 | 14.69936 | – |
| 2026 Apr 13 17:57 | 2026 Apr 12 20:25:33 | 86.3550 | 0.00092 | 20.9987 | 277.1656 | 171.0730 | 14.69936 | – |
| 2026 Apr 12 17:57 | 2026 Apr 07 08:04:01 | 86.3554 | 0.00096 | 21.1633 | 300.7779 | 171.0730 | 14.69936 | – |
| 2026 Apr 11 17:57 | 2026 Apr 07 08:04:01 | 86.3554 | 0.00096 | 21.1633 | 300.7779 | 171.0730 | 14.69936 | – |
| 2026 Apr 10 17:58 | 2026 Apr 07 08:04:01 | 86.3554 | 0.00096 | 21.1633 | 300.7779 | 171.0730 | 14.69936 | – |
| 2026 Apr 09 18:01 | 2026 Apr 07 08:04:01 | 86.3554 | 0.00096 | 21.1633 | 300.7779 | 171.0730 | 14.69936 | – |